sensor_id;sensor_type;location;lat;lon;timestamp;P1;durP1;ratioP1;P2;durP2;ratioP2
72791;SDS011;60907;53.268;8.764;2022-11-20T00:00:39;10.03;;;5.63;;
72791;SDS011;60907;53.268;8.764;2022-11-20T00:03:04;9.70;;;5.22;;
72791;SDS011;60907;53.268;8.764;2022-11-20T00:05:31;12.40;;;5.87;;
72791;SDS011;60907;53.268;8.764;2022-11-20T00:12:48;6.53;;;3.80;;
72791;SDS011;60907;53.268;8.764;2022-11-20T00:15:13;8.32;;;4.22;;
72791;SDS011;60907;53.268;8.764;2022-11-20T00:17:39;7.57;;;4.65;;
72791;SDS011;60907;53.268;8.764;2022-11-20T00:20:04;7.78;;;4.45;;
72791;SDS011;60907;53.268;8.764;2022-11-20T00:22:30;8.27;;;4.30;;
72791;SDS011;60907;53.268;8.764;2022-11-20T00:24:55;7.87;;;3.77;;
72791;SDS011;60907;53.268;8.764;2022-11-20T00:27:22;7.80;;;4.15;;
72791;SDS011;60907;53.268;8.764;2022-11-20T00:29:48;6.35;;;3.13;;
72791;SDS011;60907;53.268;8.764;2022-11-20T00:32:13;7.85;;;4.00;;
72791;SDS011;60907;53.268;8.764;2022-11-20T00:34:39;8.70;;;4.50;;
72791;SDS011;60907;53.268;8.764;2022-11-20T00:37:04;6.67;;;4.03;;
72791;SDS011;60907;53.268;8.764;2022-11-20T00:39:29;6.43;;;3.53;;
72791;SDS011;60907;53.268;8.764;2022-11-20T00:41:55;7.83;;;3.53;;
72791;SDS011;60907;53.268;8.764;2022-11-20T00:44:20;5.30;;;3.30;;
72791;SDS011;60907;53.268;8.764;2022-11-20T00:46:45;6.30;;;3.30;;
72791;SDS011;60907;53.268;8.764;2022-11-20T00:49:11;4.85;;;3.10;;
72791;SDS011;60907;53.268;8.764;2022-11-20T00:51:36;5.55;;;3.35;;
72791;SDS011;60907;53.268;8.764;2022-11-20T00:54:02;5.43;;;3.30;;
72791;SDS011;60907;53.268;8.764;2022-11-20T00:56:28;5.72;;;3.15;;
72791;SDS011;60907;53.268;8.764;2022-11-20T00:58:53;4.85;;;2.90;;
72791;SDS011;60907;53.268;8.764;2022-11-20T01:01:20;6.15;;;3.03;;
72791;SDS011;60907;53.268;8.764;2022-11-20T01:03:48;4.80;;;3.42;;
72791;SDS011;60907;53.268;8.764;2022-11-20T01:06:16;4.88;;;2.80;;
72791;SDS011;60907;53.268;8.764;2022-11-20T01:08:46;4.28;;;2.17;;
72791;SDS011;60907;53.268;8.764;2022-11-20T01:11:22;3.83;;;2.38;;
72791;SDS011;60907;53.268;8.764;2022-11-20T01:13:49;4.68;;;2.42;;
72791;SDS011;60907;53.268;8.764;2022-11-20T01:16:26;3.75;;;2.10;;
72791;SDS011;60907;53.268;8.764;2022-11-20T01:18:54;4.47;;;2.53;;
72791;SDS011;60907;53.268;8.764;2022-11-20T01:21:22;4.07;;;2.22;;
72791;SDS011;60907;53.268;8.764;2022-11-20T01:28:42;6.68;;;2.42;;
72791;SDS011;60907;53.268;8.764;2022-11-20T01:31:15;5.18;;;2.72;;
72791;SDS011;60907;53.268;8.764;2022-11-20T01:33:52;4.63;;;2.40;;
72791;SDS011;60907;53.268;8.764;2022-11-20T01:41:10;6.67;;;2.30;;
72791;SDS011;60907;53.268;8.764;2022-11-20T01:43:56;7.30;;;3.35;;
72791;SDS011;60907;53.268;8.764;2022-11-20T01:46:22;6.13;;;3.00;;
72791;SDS011;60907;53.268;8.764;2022-11-20T01:48:52;8.73;;;3.63;;
72791;SDS011;60907;53.268;8.764;2022-11-20T01:54:00;7.53;;;3.80;;
72791;SDS011;60907;53.268;8.764;2022-11-20T01:56:27;9.40;;;4.35;;
72791;SDS011;60907;53.268;8.764;2022-11-20T01:58:54;9.45;;;4.43;;
72791;SDS011;60907;53.268;8.764;2022-11-20T02:01:21;11.68;;;5.20;;
72791;SDS011;60907;53.268;8.764;2022-11-20T02:03:47;13.32;;;6.32;;
72791;SDS011;60907;53.268;8.764;2022-11-20T02:06:17;12.25;;;6.60;;
72791;SDS011;60907;53.268;8.764;2022-11-20T02:08:45;10.77;;;6.82;;
72791;SDS011;60907;53.268;8.764;2022-11-20T02:11:11;14.38;;;7.57;;
72791;SDS011;60907;53.268;8.764;2022-11-20T02:13:37;10.40;;;6.85;;
72791;SDS011;60907;53.268;8.764;2022-11-20T02:16:23;11.80;;;6.75;;
72791;SDS011;60907;53.268;8.764;2022-11-20T02:18:50;12.32;;;6.30;;
72791;SDS011;60907;53.268;8.764;2022-11-20T02:26:30;15.10;;;7.45;;
72791;SDS011;60907;53.268;8.764;2022-11-20T02:28:57;15.98;;;8.73;;
72791;SDS011;60907;53.268;8.764;2022-11-20T02:31:24;13.82;;;7.30;;
72791;SDS011;60907;53.268;8.764;2022-11-20T02:33:54;15.70;;;8.20;;
72791;SDS011;60907;53.268;8.764;2022-11-20T02:36:20;16.23;;;8.02;;
72791;SDS011;60907;53.268;8.764;2022-11-20T02:38:46;13.95;;;8.02;;
72791;SDS011;60907;53.268;8.764;2022-11-20T02:41:11;16.70;;;8.70;;
72791;SDS011;60907;53.268;8.764;2022-11-20T02:43:37;14.07;;;8.00;;
72791;SDS011;60907;53.268;8.764;2022-11-20T02:46:02;14.45;;;8.07;;
72791;SDS011;60907;53.268;8.764;2022-11-20T02:48:27;12.47;;;7.50;;
72791;SDS011;60907;53.268;8.764;2022-11-20T02:50:53;17.30;;;8.10;;
72791;SDS011;60907;53.268;8.764;2022-11-20T02:53:18;16.33;;;9.20;;
72791;SDS011;60907;53.268;8.764;2022-11-20T02:55:44;14.93;;;8.38;;
72791;SDS011;60907;53.268;8.764;2022-11-20T02:58:09;13.83;;;8.10;;
72791;SDS011;60907;53.268;8.764;2022-11-20T03:00:35;16.90;;;8.23;;
72791;SDS011;60907;53.268;8.764;2022-11-20T03:03:00;16.95;;;8.57;;
72791;SDS011;60907;53.268;8.764;2022-11-20T03:05:26;13.07;;;7.90;;
72791;SDS011;60907;53.268;8.764;2022-11-20T03:07:51;14.57;;;8.13;;
72791;SDS011;60907;53.268;8.764;2022-11-20T03:10:17;16.10;;;7.80;;
72791;SDS011;60907;53.268;8.764;2022-11-20T03:12:42;15.50;;;8.30;;
72791;SDS011;60907;53.268;8.764;2022-11-20T03:15:08;16.92;;;8.88;;
72791;SDS011;60907;53.268;8.764;2022-11-20T03:17:34;15.25;;;8.68;;
72791;SDS011;60907;53.268;8.764;2022-11-20T03:19:59;14.65;;;8.20;;
72791;SDS011;60907;53.268;8.764;2022-11-20T03:22:25;14.57;;;8.18;;
72791;SDS011;60907;53.268;8.764;2022-11-20T03:24:50;17.27;;;9.07;;
72791;SDS011;60907;53.268;8.764;2022-11-20T03:27:16;17.10;;;8.38;;
72791;SDS011;60907;53.268;8.764;2022-11-20T03:29:41;15.77;;;7.90;;
72791;SDS011;60907;53.268;8.764;2022-11-20T03:32:07;16.75;;;8.85;;
72791;SDS011;60907;53.268;8.764;2022-11-20T03:34:32;17.90;;;8.65;;
72791;SDS011;60907;53.268;8.764;2022-11-20T03:36:57;13.82;;;7.60;;
72791;SDS011;60907;53.268;8.764;2022-11-20T03:39:23;16.43;;;7.60;;
72791;SDS011;60907;53.268;8.764;2022-11-20T03:41:48;19.50;;;8.70;;
72791;SDS011;60907;53.268;8.764;2022-11-20T03:44:13;15.82;;;7.97;;
72791;SDS011;60907;53.268;8.764;2022-11-20T03:46:39;15.48;;;8.50;;
72791;SDS011;60907;53.268;8.764;2022-11-20T03:49:04;15.85;;;8.80;;
72791;SDS011;60907;53.268;8.764;2022-11-20T03:51:31;15.60;;;8.35;;
72791;SDS011;60907;53.268;8.764;2022-11-20T03:54:01;18.05;;;9.20;;
72791;SDS011;60907;53.268;8.764;2022-11-20T03:56:32;14.25;;;7.55;;
72791;SDS011;60907;53.268;8.764;2022-11-20T03:58:59;15.98;;;7.93;;
72791;SDS011;60907;53.268;8.764;2022-11-20T04:01:26;19.92;;;8.57;;
72791;SDS011;60907;53.268;8.764;2022-11-20T04:03:54;16.15;;;9.05;;
72791;SDS011;60907;53.268;8.764;2022-11-20T04:06:21;17.52;;;9.50;;
72791;SDS011;60907;53.268;8.764;2022-11-20T04:08:51;15.95;;;8.30;;
72791;SDS011;60907;53.268;8.764;2022-11-20T04:11:22;17.02;;;8.18;;
72791;SDS011;60907;53.268;8.764;2022-11-20T04:13:54;17.08;;;7.68;;
72791;SDS011;60907;53.268;8.764;2022-11-20T04:16:21;19.95;;;8.50;;
72791;SDS011;60907;53.268;8.764;2022-11-20T04:18:51;15.25;;;7.80;;
72791;SDS011;60907;53.268;8.764;2022-11-20T04:21:19;17.52;;;8.45;;
72791;SDS011;60907;53.268;8.764;2022-11-20T04:23:45;16.90;;;8.30;;
72791;SDS011;60907;53.268;8.764;2022-11-20T04:26:11;18.10;;;8.23;;
72791;SDS011;60907;53.268;8.764;2022-11-20T04:28:38;17.40;;;7.97;;
72791;SDS011;60907;53.268;8.764;2022-11-20T04:31:14;14.32;;;6.75;;
72791;SDS011;60907;53.268;8.764;2022-11-20T04:33:41;15.88;;;7.22;;
72791;SDS011;60907;53.268;8.764;2022-11-20T04:36:07;18.27;;;7.72;;
72791;SDS011;60907;53.268;8.764;2022-11-20T04:38:36;15.82;;;8.32;;
72791;SDS011;60907;53.268;8.764;2022-11-20T04:41:03;13.60;;;6.85;;
72791;SDS011;60907;53.268;8.764;2022-11-20T04:43:31;13.15;;;7.57;;
72791;SDS011;60907;53.268;8.764;2022-11-20T04:45:57;15.77;;;6.80;;
72791;SDS011;60907;53.268;8.764;2022-11-20T04:48:23;14.57;;;7.43;;
72791;SDS011;60907;53.268;8.764;2022-11-20T04:50:49;11.23;;;6.45;;
72791;SDS011;60907;53.268;8.764;2022-11-20T04:53:15;12.23;;;6.53;;
72791;SDS011;60907;53.268;8.764;2022-11-20T04:55:41;12.25;;;7.18;;
72791;SDS011;60907;53.268;8.764;2022-11-20T04:58:06;13.23;;;6.97;;
72791;SDS011;60907;53.268;8.764;2022-11-20T05:00:32;13.07;;;6.65;;
72791;SDS011;60907;53.268;8.764;2022-11-20T05:02:57;12.45;;;6.72;;
72791;SDS011;60907;53.268;8.764;2022-11-20T05:05:22;16.80;;;6.88;;
72791;SDS011;60907;53.268;8.764;2022-11-20T05:07:48;14.07;;;6.88;;
72791;SDS011;60907;53.268;8.764;2022-11-20T05:10:13;12.55;;;7.03;;
72791;SDS011;60907;53.268;8.764;2022-11-20T05:12:39;13.82;;;5.97;;
72791;SDS011;60907;53.268;8.764;2022-11-20T05:15:05;11.98;;;6.10;;
72791;SDS011;60907;53.268;8.764;2022-11-20T05:17:30;11.57;;;5.68;;
72791;SDS011;60907;53.268;8.764;2022-11-20T05:19:56;14.10;;;5.85;;
72791;SDS011;60907;53.268;8.764;2022-11-20T05:22:21;12.95;;;6.65;;
72791;SDS011;60907;53.268;8.764;2022-11-20T05:24:46;12.43;;;6.10;;
72791;SDS011;60907;53.268;8.764;2022-11-20T05:27:12;11.57;;;5.75;;
72791;SDS011;60907;53.268;8.764;2022-11-20T05:29:37;13.05;;;6.70;;
72791;SDS011;60907;53.268;8.764;2022-11-20T05:32:03;14.00;;;7.20;;
72791;SDS011;60907;53.268;8.764;2022-11-20T05:34:30;13.32;;;6.43;;
72791;SDS011;60907;53.268;8.764;2022-11-20T05:36:56;12.45;;;6.32;;
72791;SDS011;60907;53.268;8.764;2022-11-20T05:39:22;11.13;;;5.47;;
72791;SDS011;60907;53.268;8.764;2022-11-20T05:41:47;12.70;;;5.90;;
72791;SDS011;60907;53.268;8.764;2022-11-20T05:44:32;10.82;;;5.70;;
72791;SDS011;60907;53.268;8.764;2022-11-20T05:46:58;11.00;;;6.43;;
72791;SDS011;60907;53.268;8.764;2022-11-20T05:49:23;13.70;;;5.80;;
72791;SDS011;60907;53.268;8.764;2022-11-20T05:51:49;15.82;;;6.30;;
72791;SDS011;60907;53.268;8.764;2022-11-20T05:54:14;12.52;;;5.38;;
72791;SDS011;60907;53.268;8.764;2022-11-20T05:56:39;15.23;;;6.30;;
72791;SDS011;60907;53.268;8.764;2022-11-20T05:59:05;10.13;;;6.03;;
72791;SDS011;60907;53.268;8.764;2022-11-20T06:01:30;12.15;;;6.22;;
72791;SDS011;60907;53.268;8.764;2022-11-20T06:03:56;10.30;;;5.97;;
72791;SDS011;60907;53.268;8.764;2022-11-20T06:06:21;12.95;;;6.22;;
72791;SDS011;60907;53.268;8.764;2022-11-20T06:08:47;13.40;;;6.03;;
72791;SDS011;60907;53.268;8.764;2022-11-20T06:11:13;10.35;;;6.13;;
72791;SDS011;60907;53.268;8.764;2022-11-20T06:13:39;12.95;;;6.72;;
72791;SDS011;60907;53.268;8.764;2022-11-20T06:16:05;13.38;;;6.63;;
72791;SDS011;60907;53.268;8.764;2022-11-20T06:18:30;11.05;;;5.68;;
72791;SDS011;60907;53.268;8.764;2022-11-20T06:21:09;16.85;;;6.05;;
72791;SDS011;60907;53.268;8.764;2022-11-20T06:23:36;11.55;;;5.32;;
72791;SDS011;60907;53.268;8.764;2022-11-20T06:26:03;12.45;;;5.72;;
72791;SDS011;60907;53.268;8.764;2022-11-20T06:33:20;12.87;;;6.37;;
72791;SDS011;60907;53.268;8.764;2022-11-20T06:35:46;12.30;;;6.00;;
72791;SDS011;60907;53.268;8.764;2022-11-20T06:38:11;10.15;;;5.43;;
72791;SDS011;60907;53.268;8.764;2022-11-20T06:40:39;12.73;;;5.88;;
72791;SDS011;60907;53.268;8.764;2022-11-20T06:43:05;9.18;;;5.80;;
72791;SDS011;60907;53.268;8.764;2022-11-20T06:45:31;14.13;;;6.40;;
72791;SDS011;60907;53.268;8.764;2022-11-20T06:47:59;12.95;;;6.13;;
72791;SDS011;60907;53.268;8.764;2022-11-20T06:50:24;10.68;;;6.07;;
72791;SDS011;60907;53.268;8.764;2022-11-20T06:52:50;9.02;;;4.75;;
72791;SDS011;60907;53.268;8.764;2022-11-20T06:55:15;11.23;;;6.20;;
72791;SDS011;60907;53.268;8.764;2022-11-20T06:57:41;11.07;;;5.85;;
72791;SDS011;60907;53.268;8.764;2022-11-20T07:00:06;10.82;;;4.90;;
72791;SDS011;60907;53.268;8.764;2022-11-20T07:02:32;9.80;;;4.80;;
72791;SDS011;60907;53.268;8.764;2022-11-20T07:04:57;11.63;;;5.20;;
72791;SDS011;60907;53.268;8.764;2022-11-20T07:07:23;9.98;;;5.88;;
72791;SDS011;60907;53.268;8.764;2022-11-20T07:09:48;10.32;;;5.40;;
72791;SDS011;60907;53.268;8.764;2022-11-20T07:12:14;11.00;;;5.07;;
72791;SDS011;60907;53.268;8.764;2022-11-20T07:14:39;11.93;;;5.15;;
72791;SDS011;60907;53.268;8.764;2022-11-20T07:17:05;7.63;;;5.00;;
72791;SDS011;60907;53.268;8.764;2022-11-20T07:19:30;12.70;;;5.68;;
72791;SDS011;60907;53.268;8.764;2022-11-20T07:21:56;9.77;;;4.95;;
72791;SDS011;60907;53.268;8.764;2022-11-20T07:24:21;12.25;;;5.18;;
72791;SDS011;60907;53.268;8.764;2022-11-20T07:26:46;7.78;;;5.13;;
72791;SDS011;60907;53.268;8.764;2022-11-20T07:29:14;10.55;;;5.53;;
72791;SDS011;60907;53.268;8.764;2022-11-20T07:31:40;9.48;;;5.28;;
72791;SDS011;60907;53.268;8.764;2022-11-20T07:34:05;9.60;;;5.10;;
72791;SDS011;60907;53.268;8.764;2022-11-20T07:36:31;9.38;;;5.13;;
72791;SDS011;60907;53.268;8.764;2022-11-20T07:38:56;9.40;;;5.15;;
72791;SDS011;60907;53.268;8.764;2022-11-20T07:41:22;10.93;;;5.30;;
72791;SDS011;60907;53.268;8.764;2022-11-20T07:43:47;12.35;;;5.32;;
72791;SDS011;60907;53.268;8.764;2022-11-20T07:46:12;9.90;;;4.80;;
72791;SDS011;60907;53.268;8.764;2022-11-20T07:48:38;10.60;;;5.18;;
72791;SDS011;60907;53.268;8.764;2022-11-20T07:51:03;9.75;;;4.63;;
72791;SDS011;60907;53.268;8.764;2022-11-20T07:53:29;9.57;;;4.97;;
72791;SDS011;60907;53.268;8.764;2022-11-20T07:55:54;8.70;;;4.65;;
72791;SDS011;60907;53.268;8.764;2022-11-20T07:58:20;10.45;;;4.90;;
72791;SDS011;60907;53.268;8.764;2022-11-20T08:00:46;9.68;;;4.70;;
72791;SDS011;60907;53.268;8.764;2022-11-20T08:03:11;9.52;;;5.22;;
72791;SDS011;60907;53.268;8.764;2022-11-20T08:05:37;10.63;;;4.47;;
72791;SDS011;60907;53.268;8.764;2022-11-20T08:08:03;9.63;;;4.85;;
72791;SDS011;60907;53.268;8.764;2022-11-20T08:10:28;9.45;;;5.38;;
72791;SDS011;60907;53.268;8.764;2022-11-20T08:12:54;8.98;;;5.03;;
72791;SDS011;60907;53.268;8.764;2022-11-20T08:15:39;12.63;;;5.00;;
72791;SDS011;60907;53.268;8.764;2022-11-20T08:18:09;10.80;;;4.80;;
72791;SDS011;60907;53.268;8.764;2022-11-20T08:20:38;9.07;;;4.55;;
72791;SDS011;60907;53.268;8.764;2022-11-20T08:23:04;8.73;;;4.57;;
72791;SDS011;60907;53.268;8.764;2022-11-20T08:25:31;10.07;;;5.05;;
72791;SDS011;60907;53.268;8.764;2022-11-20T08:27:58;14.20;;;6.00;;
72791;SDS011;60907;53.268;8.764;2022-11-20T08:30:24;13.02;;;5.28;;
72791;SDS011;60907;53.268;8.764;2022-11-20T08:32:50;10.63;;;6.00;;
72791;SDS011;60907;53.268;8.764;2022-11-20T08:35:15;9.77;;;5.03;;
72791;SDS011;60907;53.268;8.764;2022-11-20T08:37:41;10.20;;;4.95;;
72791;SDS011;60907;53.268;8.764;2022-11-20T08:40:10;9.98;;;5.43;;
72791;SDS011;60907;53.268;8.764;2022-11-20T08:42:36;8.95;;;5.35;;
72791;SDS011;60907;53.268;8.764;2022-11-20T08:45:01;8.82;;;4.35;;
72791;SDS011;60907;53.268;8.764;2022-11-20T08:47:27;10.18;;;5.18;;
72791;SDS011;60907;53.268;8.764;2022-11-20T08:49:53;11.00;;;4.95;;
72791;SDS011;60907;53.268;8.764;2022-11-20T08:52:18;7.40;;;4.72;;
72791;SDS011;60907;53.268;8.764;2022-11-20T08:54:44;9.82;;;4.93;;
72791;SDS011;60907;53.268;8.764;2022-11-20T08:57:09;8.32;;;4.50;;
72791;SDS011;60907;53.268;8.764;2022-11-20T08:59:35;8.98;;;4.53;;
72791;SDS011;60907;53.268;8.764;2022-11-20T09:02:00;9.25;;;4.35;;
72791;SDS011;60907;53.268;8.764;2022-11-20T09:04:25;9.52;;;4.43;;
72791;SDS011;60907;53.268;8.764;2022-11-20T09:06:51;9.60;;;4.85;;
72791;SDS011;60907;53.268;8.764;2022-11-20T09:09:17;9.68;;;4.57;;
72791;SDS011;60907;53.268;8.764;2022-11-20T09:11:43;9.27;;;4.45;;
72791;SDS011;60907;53.268;8.764;2022-11-20T09:14:09;11.38;;;4.45;;
72791;SDS011;60907;53.268;8.764;2022-11-20T09:16:34;9.43;;;5.10;;
72791;SDS011;60907;53.268;8.764;2022-11-20T09:19:00;10.45;;;5.45;;
72791;SDS011;60907;53.268;8.764;2022-11-20T09:21:25;10.27;;;5.30;;
72791;SDS011;60907;53.268;8.764;2022-11-20T09:23:50;10.35;;;5.25;;
72791;SDS011;60907;53.268;8.764;2022-11-20T09:26:16;8.57;;;4.93;;
72791;SDS011;60907;53.268;8.764;2022-11-20T09:28:41;9.77;;;4.80;;
72791;SDS011;60907;53.268;8.764;2022-11-20T09:31:07;9.32;;;5.25;;
72791;SDS011;60907;53.268;8.764;2022-11-20T09:33:34;10.77;;;4.90;;
72791;SDS011;60907;53.268;8.764;2022-11-20T09:36:00;9.13;;;5.00;;
72791;SDS011;60907;53.268;8.764;2022-11-20T09:38:25;9.23;;;5.40;;
72791;SDS011;60907;53.268;8.764;2022-11-20T09:40:58;10.30;;;4.80;;
72791;SDS011;60907;53.268;8.764;2022-11-20T09:46:15;8.48;;;5.20;;
72791;SDS011;60907;53.268;8.764;2022-11-20T09:51:37;10.68;;;4.97;;
72791;SDS011;60907;53.268;8.764;2022-11-20T09:54:18;9.77;;;5.30;;
72791;SDS011;60907;53.268;8.764;2022-11-20T09:56:46;9.00;;;5.00;;
72791;SDS011;60907;53.268;8.764;2022-11-20T10:05:10;7.80;;;4.27;;
72791;SDS011;60907;53.268;8.764;2022-11-20T10:07:37;11.63;;;5.20;;
72791;SDS011;60907;53.268;8.764;2022-11-20T10:10:13;10.18;;;5.38;;
72791;SDS011;60907;53.268;8.764;2022-11-20T10:12:51;10.15;;;5.28;;
72791;SDS011;60907;53.268;8.764;2022-11-20T10:15:33;10.18;;;5.10;;
72791;SDS011;60907;53.268;8.764;2022-11-20T10:29:29;11.15;;;4.50;;
72791;SDS011;60907;53.268;8.764;2022-11-20T10:32:02;8.15;;;4.32;;
72791;SDS011;60907;53.268;8.764;2022-11-20T10:37:17;9.48;;;5.38;;
72791;SDS011;60907;53.268;8.764;2022-11-20T10:47:40;12.25;;;7.13;;
72791;SDS011;60907;53.268;8.764;2022-11-20T10:50:08;10.15;;;5.78;;
72791;SDS011;60907;53.268;8.764;2022-11-20T10:55:45;8.40;;;4.82;;
72791;SDS011;60907;53.268;8.764;2022-11-20T11:01:05;8.20;;;4.32;;
72791;SDS011;60907;53.268;8.764;2022-11-20T11:03:52;9.30;;;5.05;;
72791;SDS011;60907;53.268;8.764;2022-11-20T11:09:04;10.13;;;4.80;;
72791;SDS011;60907;53.268;8.764;2022-11-20T11:11:35;9.30;;;4.50;;
72791;SDS011;60907;53.268;8.764;2022-11-20T11:14:10;10.20;;;5.13;;
72791;SDS011;60907;53.268;8.764;2022-11-20T11:16:48;12.07;;;6.00;;
72791;SDS011;60907;53.268;8.764;2022-11-20T11:19:23;11.85;;;5.13;;
72791;SDS011;60907;53.268;8.764;2022-11-20T11:21:49;9.82;;;5.35;;
72791;SDS011;60907;53.268;8.764;2022-11-20T11:24:27;9.10;;;4.65;;
72791;SDS011;60907;53.268;8.764;2022-11-20T11:27:03;9.55;;;5.25;;
72791;SDS011;60907;53.268;8.764;2022-11-20T11:29:37;10.27;;;5.20;;
72791;SDS011;60907;53.268;8.764;2022-11-20T11:32:05;12.45;;;5.53;;
72791;SDS011;60907;53.268;8.764;2022-11-20T11:34:32;11.20;;;5.97;;
72791;SDS011;60907;53.268;8.764;2022-11-20T11:36:57;9.82;;;5.88;;
72791;SDS011;60907;53.268;8.764;2022-11-20T11:39:23;9.80;;;5.35;;
72791;SDS011;60907;53.268;8.764;2022-11-20T11:41:51;12.05;;;6.43;;
72791;SDS011;60907;53.268;8.764;2022-11-20T11:44:20;10.60;;;5.70;;
72791;SDS011;60907;53.268;8.764;2022-11-20T11:47:11;9.50;;;6.05;;
72791;SDS011;60907;53.268;8.764;2022-11-20T11:50:00;12.27;;;7.05;;
72791;SDS011;60907;53.268;8.764;2022-11-20T11:52:49;12.85;;;6.38;;
72791;SDS011;60907;53.268;8.764;2022-11-20T11:55:33;13.57;;;7.80;;
72791;SDS011;60907;53.268;8.764;2022-11-20T11:58:06;10.48;;;6.72;;
72791;SDS011;60907;53.268;8.764;2022-11-20T12:00:41;13.13;;;7.10;;
72791;SDS011;60907;53.268;8.764;2022-11-20T12:05:44;12.32;;;6.53;;
72791;SDS011;60907;53.268;8.764;2022-11-20T12:13:54;14.40;;;7.38;;
72791;SDS011;60907;53.268;8.764;2022-11-20T12:16:23;12.93;;;7.70;;
72791;SDS011;60907;53.268;8.764;2022-11-20T12:18:49;14.48;;;7.68;;
72791;SDS011;60907;53.268;8.764;2022-11-20T12:39:56;12.48;;;6.85;;
72791;SDS011;60907;53.268;8.764;2022-11-20T12:42:39;11.57;;;7.10;;
72791;SDS011;60907;53.268;8.764;2022-11-20T12:48:19;12.70;;;7.50;;
72791;SDS011;60907;53.268;8.764;2022-11-20T12:59:12;13.43;;;6.97;;
72791;SDS011;60907;53.268;8.764;2022-11-20T13:01:52;11.85;;;7.00;;
72791;SDS011;60907;53.268;8.764;2022-11-20T13:06:46;13.43;;;6.72;;
72791;SDS011;60907;53.268;8.764;2022-11-20T13:09:13;13.73;;;8.32;;
72791;SDS011;60907;53.268;8.764;2022-11-20T13:14:37;16.92;;;8.73;;
72791;SDS011;60907;53.268;8.764;2022-11-20T13:17:18;16.05;;;7.68;;
72791;SDS011;60907;53.268;8.764;2022-11-20T13:19:52;14.52;;;7.57;;
72791;SDS011;60907;53.268;8.764;2022-11-20T13:22:26;12.38;;;7.25;;
72791;SDS011;60907;53.268;8.764;2022-11-20T13:24:53;12.50;;;7.22;;
72791;SDS011;60907;53.268;8.764;2022-11-20T13:27:22;14.35;;;7.50;;
72791;SDS011;60907;53.268;8.764;2022-11-20T13:32:36;16.70;;;8.70;;
72791;SDS011;60907;53.268;8.764;2022-11-20T13:35:02;10.65;;;6.40;;
72791;SDS011;60907;53.268;8.764;2022-11-20T13:37:33;10.48;;;6.20;;
72791;SDS011;60907;53.268;8.764;2022-11-20T13:42:44;12.13;;;6.05;;
72791;SDS011;60907;53.268;8.764;2022-11-20T13:45:27;14.18;;;6.80;;
72791;SDS011;60907;53.268;8.764;2022-11-20T13:47:55;11.38;;;5.47;;
72791;SDS011;60907;53.268;8.764;2022-11-20T13:50:27;13.65;;;7.47;;
72791;SDS011;60907;53.268;8.764;2022-11-20T13:53:21;13.77;;;6.63;;
72791;SDS011;60907;53.268;8.764;2022-11-20T13:56:14;11.27;;;7.22;;
72791;SDS011;60907;53.268;8.764;2022-11-20T13:58:59;12.23;;;6.10;;
72791;SDS011;60907;53.268;8.764;2022-11-20T14:01:32;12.05;;;6.00;;
72791;SDS011;60907;53.268;8.764;2022-11-20T14:03:57;14.65;;;7.22;;
72791;SDS011;60907;53.268;8.764;2022-11-20T14:08:53;11.20;;;5.78;;
72791;SDS011;60907;53.268;8.764;2022-11-20T14:11:20;9.98;;;5.88;;
72791;SDS011;60907;53.268;8.764;2022-11-20T14:16:19;9.15;;;5.53;;
72791;SDS011;60907;53.268;8.764;2022-11-20T14:18:45;9.98;;;6.35;;
72791;SDS011;60907;53.268;8.764;2022-11-20T14:21:10;8.63;;;5.35;;
72791;SDS011;60907;53.268;8.764;2022-11-20T14:23:36;11.07;;;6.82;;
72791;SDS011;60907;53.268;8.764;2022-11-20T14:26:03;10.07;;;6.78;;
72791;SDS011;60907;53.268;8.764;2022-11-20T14:28:30;13.13;;;6.80;;
72791;SDS011;60907;53.268;8.764;2022-11-20T14:30:56;10.90;;;6.65;;
72791;SDS011;60907;53.268;8.764;2022-11-20T14:33:22;12.10;;;6.80;;
72791;SDS011;60907;53.268;8.764;2022-11-20T14:35:50;12.68;;;6.40;;
72791;SDS011;60907;53.268;8.764;2022-11-20T14:38:27;10.35;;;6.28;;
72791;SDS011;60907;53.268;8.764;2022-11-20T14:40:53;12.13;;;5.95;;
72791;SDS011;60907;53.268;8.764;2022-11-20T14:43:28;10.57;;;5.78;;
72791;SDS011;60907;53.268;8.764;2022-11-20T14:46:01;11.15;;;5.35;;
72791;SDS011;60907;53.268;8.764;2022-11-20T14:51:10;12.57;;;6.35;;
72791;SDS011;60907;53.268;8.764;2022-11-20T14:53:36;11.90;;;5.82;;
72791;SDS011;60907;53.268;8.764;2022-11-20T14:56:01;11.45;;;6.20;;
72791;SDS011;60907;53.268;8.764;2022-11-20T14:58:31;12.45;;;6.03;;
72791;SDS011;60907;53.268;8.764;2022-11-20T15:00:59;9.63;;;6.03;;
72791;SDS011;60907;53.268;8.764;2022-11-20T15:03:30;12.43;;;6.35;;
72791;SDS011;60907;53.268;8.764;2022-11-20T15:05:57;12.82;;;6.30;;
72791;SDS011;60907;53.268;8.764;2022-11-20T15:08:22;14.63;;;6.40;;
72791;SDS011;60907;53.268;8.764;2022-11-20T15:10:48;11.15;;;5.85;;
72791;SDS011;60907;53.268;8.764;2022-11-20T15:13:16;11.90;;;5.78;;
72791;SDS011;60907;53.268;8.764;2022-11-20T15:15:49;11.88;;;6.07;;
72791;SDS011;60907;53.268;8.764;2022-11-20T15:18:58;14.27;;;6.03;;
72791;SDS011;60907;53.268;8.764;2022-11-20T15:21:16;12.68;;;6.43;;
72791;SDS011;60907;53.268;8.764;2022-11-20T15:23:43;12.05;;;5.45;;
72791;SDS011;60907;53.268;8.764;2022-11-20T15:26:09;13.13;;;6.47;;
72791;SDS011;60907;53.268;8.764;2022-11-20T15:28:37;13.20;;;6.50;;
72791;SDS011;60907;53.268;8.764;2022-11-20T15:31:05;14.70;;;7.50;;
72791;SDS011;60907;53.268;8.764;2022-11-20T15:33:31;13.68;;;6.60;;
72791;SDS011;60907;53.268;8.764;2022-11-20T15:35:57;12.65;;;6.22;;
72791;SDS011;60907;53.268;8.764;2022-11-20T15:38:22;11.32;;;6.65;;
72791;SDS011;60907;53.268;8.764;2022-11-20T15:40:48;11.40;;;6.05;;
72791;SDS011;60907;53.268;8.764;2022-11-20T15:43:14;10.73;;;6.57;;
72791;SDS011;60907;53.268;8.764;2022-11-20T15:48:15;12.30;;;6.75;;
72791;SDS011;60907;53.268;8.764;2022-11-20T15:50:58;9.52;;;6.45;;
72791;SDS011;60907;53.268;8.764;2022-11-20T15:53:29;11.93;;;6.32;;
72791;SDS011;60907;53.268;8.764;2022-11-20T15:55:55;12.73;;;6.90;;
72791;SDS011;60907;53.268;8.764;2022-11-20T15:58:20;11.45;;;6.53;;
72791;SDS011;60907;53.268;8.764;2022-11-20T16:00:47;12.77;;;5.75;;
72791;SDS011;60907;53.268;8.764;2022-11-20T16:03:13;12.73;;;6.80;;
72791;SDS011;60907;53.268;8.764;2022-11-20T16:05:39;9.55;;;5.97;;
72791;SDS011;60907;53.268;8.764;2022-11-20T16:08:05;15.70;;;7.32;;
72791;SDS011;60907;53.268;8.764;2022-11-20T16:10:31;8.95;;;5.93;;
72791;SDS011;60907;53.268;8.764;2022-11-20T16:12:56;13.43;;;6.72;;
72791;SDS011;60907;53.268;8.764;2022-11-20T16:15:40;12.75;;;7.18;;
72791;SDS011;60907;53.268;8.764;2022-11-20T16:18:21;11.82;;;7.43;;
72791;SDS011;60907;53.268;8.764;2022-11-20T16:20:53;11.27;;;6.78;;
72791;SDS011;60907;53.268;8.764;2022-11-20T16:23:19;17.33;;;8.30;;
72791;SDS011;60907;53.268;8.764;2022-11-20T16:25:45;20.38;;;10.77;;
72791;SDS011;60907;53.268;8.764;2022-11-20T16:28:12;56.78;;;22.48;;
72791;SDS011;60907;53.268;8.764;2022-11-20T16:30:38;32.42;;;13.85;;
72791;SDS011;60907;53.268;8.764;2022-11-20T16:33:04;24.65;;;12.02;;
72791;SDS011;60907;53.268;8.764;2022-11-20T16:35:33;23.52;;;10.77;;
72791;SDS011;60907;53.268;8.764;2022-11-20T16:37:59;20.50;;;11.48;;
72791;SDS011;60907;53.268;8.764;2022-11-20T16:40:24;22.52;;;10.80;;
72791;SDS011;60907;53.268;8.764;2022-11-20T16:42:50;22.25;;;10.07;;
72791;SDS011;60907;53.268;8.764;2022-11-20T16:45:16;15.02;;;8.68;;
72791;SDS011;60907;53.268;8.764;2022-11-20T16:47:41;14.20;;;7.93;;
72791;SDS011;60907;53.268;8.764;2022-11-20T16:50:07;15.77;;;7.90;;
72791;SDS011;60907;53.268;8.764;2022-11-20T16:52:33;13.55;;;7.82;;